This is the latest recevied weather packets stored in our database for station/object WC4PEM-12. If no packets are shown the sender has not sent any weather packets the latest 10 day(s).
| Time | Temp. | Humidity | Pressure | Rain* | Wind** | Luminosity | Snow |
|---|---|---|---|---|---|---|---|
| 1777731884 | 26.11° C | 79% | 1011.1 hPa | 0 mm | - | - | - |
| 1777731785 | 27.22° C | 76% | 1011 hPa | 0 mm | - | - | - |
| 1777731485 | 27.22° C | 75% | 1011.3 hPa | 0 mm | - | - | - |
| 1777731185 | 26.67° C | 77% | 1011.2 hPa | 0 mm | - | - | - |
| 1777730885 | 26.67° C | 76% | 1011.1 hPa | 0 mm | - | - | - |
| 1777730585 | 26.11° C | 79% | 1011.1 hPa | 0 mm | - | - | - |
| 1777730288 | 26.11° C | 81% | 1011.2 hPa | 0 mm | - | - | - |
| 1777730285 | 26.11° C | 80% | 1011 hPa | 0 mm | - | - | - |
| 1777730047 | 26.11° C | 81% | 1011.2 hPa | 0 mm | - | - | - |
| 1777729985 | 26.11° C | 81% | 1011.2 hPa | 0 mm | - | - | - |
| 1777729763 | 25° C | 83% | 1010.8 hPa | 0 mm | - | - | - |
| 1777729685 | 25.56° C | 82% | 1011.3 hPa | 0 mm | - | - | - |
| 1777729385 | 25° C | 83% | 1010.8 hPa | 0 mm | - | - | - |
| 1777729308 | 25° C | 83% | 1010.9 hPa | 0 mm | - | - | - |
| 1777729085 | 25° C | 83% | 1010.9 hPa | 0 mm | - | - | - |
| 1777729070 | 23.89° C | 85% | 1010.8 hPa | 0 mm | - | - | - |
| 1777728785 | 24.44° C | 84% | 1010.8 hPa | 0 mm | - | - | - |
| 1777728485 | 24.44° C | 84% | 1010.6 hPa | 0 mm | - | - | - |
| 1777728185 | 23.89° C | 85% | 1010.4 hPa | 0 mm | - | - | - |
| 1777727885 | 23.89° C | 85% | 1010.8 hPa | 0 mm | - | - | - |
| 1777727703 | 22.78° C | 87% | 1010.4 hPa | 0 mm | - | - | - |
| 1777727585 | 23.33° C | 86% | 1010.8 hPa | 0 mm | - | - | - |
| 1777727318 | 23.33° C | 87% | 1010.8 hPa | 0 mm | - | - | - |
| 1777727285 | 23.33° C | 87% | 1010.8 hPa | 0 mm | - | - | - |
| 1777726985 | 22.78° C | 87% | 1010.4 hPa | 0 mm | - | - | - |
* Rain latest hour (hover to see other rain measurements)
** Current wind speed in m/s (hover to see current wind gust speed)